Time;durP1;ratioP1;P1;durP2;ratioP2;P2;SDS_P1;SDS_P2;PMS_P1;PMS_P2;Temp;Humidity;BMP_temperature;BMP_pressure;BME280_temperature;BME280_humidity;BME280_pressure;Samples;Min_cycle;Max_cycle;Signal;HPM_P1;HPM_P2
2023/11/12 00:01:24;;;;;;;4.22;3.78;;;;;;;3.03;100.00;96619.13;5021392;28;20423;-80
2023/11/12 00:03:51;;;;;;;7.13;3.88;;;;;;;3.05;100.00;96614.47;5021711;28;20428;-79
2023/11/12 00:06:17;;;;;;;4.30;3.42;;;;;;;3.05;100.00;96614.47;5023753;28;20400;-79
2023/11/12 00:08:43;;;;;;;6.35;3.83;;;;;;;3.07;100.00;96607.22;5021492;28;20873;-80
2023/11/12 00:11:09;;;;;;;4.47;3.60;;;;;;;3.06;100.00;96599.59;5022044;28;20432;-79
2023/11/12 00:13:35;;;;;;;3.88;3.40;;;;;;;3.02;100.00;96594.00;5023246;28;20939;-80
2023/11/12 00:16:01;;;;;;;4.40;3.33;;;;;;;3.01;100.00;96586.38;5024433;28;20405;-79
2023/11/12 00:18:29;;;;;;;5.80;3.53;;;;;;;3.00;100.00;96593.44;5024194;28;20407;-81
2023/11/12 00:20:55;;;;;;;4.05;3.10;;;;;;;3.00;100.00;96587.41;5024232;28;20397;-79
2023/11/12 00:23:24;;;;;;;3.92;3.08;;;;;;;2.98;100.00;96594.66;5023003;28;20974;-80
2023/11/12 00:25:50;;;;;;;3.47;3.05;;;;;;;2.97;100.00;96596.47;5023947;28;20454;-81
2023/11/12 00:28:16;;;;;;;4.82;3.15;;;;;;;2.99;100.00;96585.81;5024030;28;20471;-80
2023/11/12 00:30:42;;;;;;;5.20;3.25;;;;;;;3.00;100.00;96585.59;5023395;28;20469;-79
2023/11/12 00:33:08;;;;;;;5.50;3.53;;;;;;;3.04;100.00;96588.53;5023377;28;20421;-79
2023/11/12 00:35:36;;;;;;;5.60;3.40;;;;;;;3.04;100.00;96596.38;5023747;28;20419;-79
2023/11/12 00:38:04;;;;;;;5.07;3.35;;;;;;;3.09;100.00;96584.22;5023456;28;20473;-80
2023/11/12 00:40:32;;;;;;;3.33;2.95;;;;;;;3.16;100.00;96583.38;5005767;28;20420;-80
2023/11/12 00:42:59;;;;;;;3.75;3.10;;;;;;;3.19;100.00;96578.47;5003025;28;20436;-80
2023/11/12 00:45:25;;;;;;;4.25;3.40;;;;;;;3.17;100.00;96571.84;5019982;28;20999;-79
2023/11/12 00:47:51;;;;;;;4.15;3.22;;;;;;;3.21;100.00;96571.22;5023345;28;20408;-79
2023/11/12 00:50:18;;;;;;;4.18;3.00;;;;;;;3.29;100.00;96573.50;5024036;28;20401;-80
2023/11/12 00:52:45;;;;;;;4.20;3.30;;;;;;;3.35;100.00;96569.19;5025295;28;20484;-80
2023/11/12 00:55:11;;;;;;;3.90;2.80;;;;;;;3.37;100.00;96567.16;5024192;28;20966;-81
2023/11/12 00:57:37;;;;;;;2.80;2.40;;;;;;;3.39;100.00;96558.03;5022914;28;20468;-80
2023/11/12 01:00:05;;;;;;;5.82;3.10;;;;;;;3.37;100.00;96557.47;5020754;28;20857;-79
2023/11/12 01:02:31;;;;;;;3.58;2.88;;;;;;;3.42;100.00;96560.22;5020372;28;20816;-79
2023/11/12 01:04:58;;;;;;;3.73;3.00;;;;;;;3.38;100.00;96559.06;5019678;28;20427;-80
2023/11/12 01:07:24;;;;;;;4.93;3.00;;;;;;;3.39;100.00;96558.03;5020664;28;20400;-80
2023/11/12 01:09:51;;;;;;;2.97;2.65;;;;;;;3.38;100.00;96553.81;5019790;28;20819;-78
2023/11/12 01:12:21;;;;;;;3.17;2.88;;;;;;;3.41;100.00;96561.22;5020504;28;20401;-80
2023/11/12 01:14:47;;;;;;;4.10;3.08;;;;;;;3.45;100.00;96566.81;5004340;28;20417;-79
2023/11/12 01:17:14;;;;;;;3.10;2.80;;;;;;;3.46;100.00;96555.31;5003167;28;20421;-79
2023/11/12 01:19:40;;;;;;;3.63;2.90;;;;;;;3.46;100.00;96545.63;5002326;28;20437;-80
2023/11/12 01:22:06;;;;;;;2.70;2.50;;;;;;;3.47;100.00;96556.91;5002275;28;20403;-79
2023/11/12 01:24:34;;;;;;;3.33;2.70;;;;;;;3.47;100.00;96554.28;5002882;28;20477;-80
2023/11/12 01:27:02;;;;;;;2.75;2.40;;;;;;;3.46;100.00;96550.88;5003121;28;20399;-80
2023/11/12 01:29:29;;;;;;;2.60;2.40;;;;;;;3.47;100.00;96552.47;5002984;28;20409;-80
2023/11/12 01:31:55;;;;;;;4.18;2.40;;;;;;;3.48;100.00;96551.44;5003394;28;20706;-78
2023/11/12 01:34:22;;;;;;;4.70;2.80;;;;;;;3.46;100.00;96542.22;5003271;28;20410;-80
2023/11/12 01:36:48;;;;;;;8.98;3.22;;;;;;;3.44;100.00;96546.91;5003906;28;20751;-79
2023/11/12 01:39:15;;;;;;;4.05;2.83;;;;;;;3.43;100.00;96537.47;5000339;28;20410;-79
2023/11/12 01:41:41;;;;;;;3.47;2.70;;;;;;;3.48;100.00;96534.94;5000292;28;20414;-80
2023/11/12 01:44:08;;;;;;;3.55;2.40;;;;;;;3.50;100.00;96535.53;4999241;28;20595;-79
2023/11/12 01:46:35;;;;;;;4.30;2.50;;;;;;;3.50;100.00;96536.34;4999841;28;20398;-80
2023/11/12 01:49:03;;;;;;;4.38;2.35;;;;;;;3.53;100.00;96535.09;5000764;28;20407;-79
2023/11/12 01:51:30;;;;;;;4.03;2.30;;;;;;;3.53;100.00;96523.81;5000645;28;20894;-79
2023/11/12 01:53:57;;;;;;;3.28;2.58;;;;;;;3.54;100.00;96528.81;5000192;28;20764;-81
2023/11/12 01:56:25;;;;;;;3.47;2.40;;;;;;;3.52;100.00;96528.25;5000757;28;20448;-80
2023/11/12 01:58:54;;;;;;;3.03;2.30;;;;;;;3.54;100.00;96531.44;5001052;28;20800;-79
2023/11/12 02:01:22;;;;;;;3.20;2.40;;;;;;;3.55;100.00;96527.78;5001542;28;20397;-79
2023/11/12 02:03:50;;;;;;;2.45;2.25;;;;;;;3.57;100.00;96522.34;5001811;28;20501;-80
2023/11/12 02:06:17;;;;;;;2.83;2.53;;;;;;;3.52;100.00;96523.03;5001891;28;20748;-80
2023/11/12 02:08:43;;;;;;;2.58;2.20;;;;;;;3.53;100.00;96513.38;5002219;28;20398;-80
2023/11/12 02:11:13;;;;;;;3.28;2.30;;;;;;;3.52;100.00;96523.03;5001699;28;20729;-79
2023/11/12 02:13:42;;;;;;;2.75;2.47;;;;;;;3.50;100.00;96523.25;5000303;28;20439;-80
2023/11/12 02:16:09;;;;;;;2.97;2.43;;;;;;;3.51;100.00;96513.59;5000852;28;20472;-79
2023/11/12 02:18:36;;;;;;;4.03;2.30;;;;;;;3.53;100.00;96518.59;5002382;28;20532;-80
2023/11/12 02:21:03;;;;;;;2.85;2.30;;;;;;;3.55;100.00;96522.56;5013541;28;20908;-80
2023/11/12 02:23:29;;;;;;;2.30;2.10;;;;;;;3.56;100.00;96518.13;5004435;28;20405;-79
2023/11/12 02:25:58;;;;;;;2.28;2.08;;;;;;;3.56;100.00;96507.66;5003003;28;20469;-79
2023/11/12 02:28:25;;;;;;;2.35;2.15;;;;;;;3.55;100.00;96500.81;5003059;28;20445;-79
2023/11/12 02:30:53;;;;;;;2.13;2.00;;;;;;;3.56;100.00;96498.00;5003785;28;20458;-80
2023/11/12 02:33:23;;;;;;;5.40;2.60;;;;;;;3.53;100.00;96502.91;5011787;28;20436;-80
2023/11/12 02:35:50;;;;;;;2.33;2.10;;;;;;;3.54;100.00;96494.78;5023604;28;20455;-79
2023/11/12 02:38:16;;;;;;;3.28;2.30;;;;;;;3.54;100.00;96492.19;5023436;28;20439;-79
2023/11/12 02:40:43;;;;;;;2.90;2.00;;;;;;;3.50;100.00;96484.00;5023851;28;20412;-79
2023/11/12 02:43:10;;;;;;;4.13;2.30;;;;;;;3.41;100.00;96476.72;5023316;28;20412;-79
2023/11/12 02:45:37;;;;;;;2.50;2.17;;;;;;;3.35;100.00;96467.97;5023433;28;20908;-79
2023/11/12 02:48:03;;;;;;;2.72;2.00;;;;;;;3.24;100.00;96458.28;5021480;28;20408;-78
2023/11/12 02:50:31;;;;;;;3.25;2.00;;;;;;;3.11;100.00;96458.50;5019314;28;20878;-82
2023/11/12 02:53:00;;;;;;;3.58;2.00;;;;;;;2.95;100.00;96453.94;5021448;28;20457;-78
2023/11/12 02:55:27;;;;;;;2.00;1.80;;;;;;;2.82;100.00;96448.94;5024623;28;20882;-80
2023/11/12 02:57:53;;;;;;;2.35;2.00;;;;;;;2.67;100.00;96449.34;5025827;28;20392;-79
2023/11/12 03:00:21;;;;;;;2.58;2.08;;;;;;;2.54;100.00;96444.34;5025758;28;20404;-80
2023/11/12 03:02:47;;;;;;;3.47;2.30;;;;;;;2.38;100.00;96439.75;5026214;28;20413;-79
2023/11/12 03:05:14;;;;;;;3.45;2.30;;;;;;;2.28;100.00;96432.44;5024290;28;20442;-79
2023/11/12 03:07:40;;;;;;;2.75;2.33;;;;;;;2.19;100.00;96437.16;5024354;28;20397;-79
2023/11/12 03:10:08;;;;;;;2.58;2.20;;;;;;;2.09;100.00;96425.69;5024704;28;20745;-80
2023/11/12 03:12:36;;;;;;;2.70;2.10;;;;;;;1.99;100.00;96434.03;5024713;28;20503;-80
2023/11/12 03:15:04;;;;;;;2.20;2.00;;;;;;;1.89;100.00;96424.09;5024045;28;20416;-81
2023/11/12 03:17:32;;;;;;;2.22;2.03;;;;;;;1.82;100.00;96417.38;5023803;28;20533;-79
2023/11/12 03:19:58;;;;;;;2.38;2.00;;;;;;;1.75;100.00;96414.84;5010499;28;20399;-80
2023/11/12 03:22:24;;;;;;;2.80;2.00;;;;;;;1.67;100.00;96406.50;5004298;28;20481;-79
2023/11/12 03:24:51;;;;;;;2.40;2.20;;;;;;;1.61;100.00;96408.19;5002607;28;20453;-78
2023/11/12 03:27:17;;;;;;;2.10;1.90;;;;;;;1.56;100.00;96405.44;4997345;28;20930;-79
2023/11/12 03:29:43;;;;;;;2.20;2.00;;;;;;;1.49;100.00;96408.13;4997627;28;20898;-79
2023/11/12 03:32:10;;;;;;;2.47;2.28;;;;;;;1.47;100.00;96396.31;4996159;28;20413;-79
2023/11/12 03:34:37;;;;;;;3.42;2.45;;;;;;;1.44;100.00;96399.34;5000271;28;20402;-80
2023/11/12 03:37:04;;;;;;;2.53;2.30;;;;;;;1.43;100.00;96395.94;5002150;28;20403;-80
2023/11/12 03:39:30;;;;;;;3.83;2.75;;;;;;;1.43;100.00;96402.97;5001905;28;20883;-80
2023/11/12 03:41:56;;;;;;;4.70;3.00;;;;;;;1.48;100.00;96403.94;5003973;28;20439;-78
2023/11/12 03:44:22;;;;;;;3.08;2.58;;;;;;;1.50;100.00;96401.88;5003744;28;20476;-79
2023/11/12 03:46:48;;;;;;;5.13;3.10;;;;;;;1.52;100.00;96401.66;5003059;28;20402;-77
2023/11/12 03:49:14;;;;;;;7.32;3.72;;;;;;;1.54;100.00;96400.44;5000255;28;20394;-78
2023/11/12 03:51:42;;;;;;;5.90;3.35;;;;;;;1.59;100.00;96398.97;4998604;28;20433;-78
2023/11/12 03:54:10;;;;;;;4.85;2.95;;;;;;;1.63;100.00;96392.31;4998799;28;20445;-78
2023/11/12 03:56:36;;;;;;;3.47;2.97;;;;;;;1.64;100.00;96388.72;4997278;28;20417;-79
2023/11/12 03:59:02;;;;;;;3.90;3.00;;;;;;;1.65;100.00;96388.50;4997480;28;20402;-78
2023/11/12 04:01:28;;;;;;;4.70;2.80;;;;;;;1.64;100.00;96386.09;4998988;28;20406;-79
2023/11/12 04:03:54;;;;;;;2.70;2.50;;;;;;;1.62;100.00;96383.72;5004483;28;20398;-80
2023/11/12 04:06:20;;;;;;;2.38;2.17;;;;;;;1.59;100.00;96376.31;5003264;28;20430;-80
2023/11/12 04:08:48;;;;;;;2.72;2.40;;;;;;;1.54;100.00;96369.16;5011047;28;20414;-79
2023/11/12 04:11:14;;;;;;;2.10;2.00;;;;;;;1.51;100.00;96374.00;5023895;28;20451;-81
2023/11/12 04:13:40;;;;;;;2.50;2.30;;;;;;;1.47;100.00;96365.81;5023452;28;20424;-80
2023/11/12 04:16:08;;;;;;;2.30;2.10;;;;;;;1.45;100.00;96372.25;5023266;28;20396;-80
2023/11/12 04:18:36;;;;;;;2.45;2.20;;;;;;;1.42;100.00;96364.91;5021921;28;20858;-79
2023/11/12 04:21:03;;;;;;;2.40;2.20;;;;;;;1.40;100.00;96361.69;5023833;28;20456;-80
2023/11/12 04:23:29;;;;;;;2.60;2.15;;;;;;;1.37;100.00;96354.31;5023603;28;20456;-80
2023/11/12 04:25:56;;;;;;;2.08;1.98;;;;;;;1.35;100.00;96356.34;5023244;28;20412;-80
2023/11/12 04:28:26;;;;;;;2.20;2.00;;;;;;;1.33;100.00;96353.16;5024039;28;20747;-80
2023/11/12 04:30:53;;;;;;;2.30;2.10;;;;;;;1.30;100.00;96350.97;5023938;28;20411;-80
2023/11/12 04:33:19;;;;;;;2.20;2.00;;;;;;;1.29;100.00;96350.19;5009324;28;20815;-80
2023/11/12 04:35:49;;;;;;;2.22;2.03;;;;;;;1.28;100.00;96351.19;5004444;28;20432;-79
2023/11/12 04:38:16;;;;;;;2.05;1.95;;;;;;;1.27;100.00;96359.25;4999723;28;20453;-78
2023/11/12 04:40:42;;;;;;;2.20;2.00;;;;;;;1.24;100.00;96351.84;5002026;28;20406;-80
2023/11/12 04:43:10;;;;;;;2.13;2.03;;;;;;;1.23;100.00;96358.06;5004707;28;20517;-80
2023/11/12 04:45:36;;;;;;;2.10;2.00;;;;;;;1.21;100.00;96360.88;5002414;28;20422;-80
2023/11/12 04:48:03;;;;;;;2.20;2.00;;;;;;;1.17;100.00;96352.72;5003621;28;20422;-79
2023/11/12 04:50:29;;;;;;;2.37;2.17;;;;;;;1.14;100.00;96347.94;5004088;28;20399;-79
2023/11/12 04:52:55;;;;;;;2.33;2.13;;;;;;;1.13;100.00;96350.75;5007883;28;20419;-79
2023/11/12 04:55:21;;;;;;;2.60;2.40;;;;;;;1.13;100.00;96356.75;5004513;28;20410;-80
2023/11/12 04:57:47;;;;;;;3.40;2.30;;;;;;;1.12;100.00;96354.41;5003702;28;20981;-79
2023/11/12 05:00:16;;;;;;;4.20;2.30;;;;;;;1.12;100.00;96355.19;5003759;28;20453;-79
2023/11/12 05:02:44;;;;;;;2.55;2.20;;;;;;;1.14;100.00;96358.34;5001909;28;20907;-77
2023/11/12 05:05:11;;;;;;;2.97;2.67;;;;;;;1.11;100.00;96351.00;5000962;28;20438;-79
2023/11/12 05:07:38;;;;;;;3.10;2.80;;;;;;;1.13;100.00;96353.34;5003400;28;20403;-80
2023/11/12 05:10:08;;;;;;;3.50;2.60;;;;;;;1.13;100.00;96356.75;5022033;28;20457;-80
2023/11/12 05:12:34;;;;;;;3.45;2.60;;;;;;;1.14;100.00;96362.78;5023657;28;20900;-80
2023/11/12 05:15:00;;;;;;;3.00;2.70;;;;;;;1.13;100.00;96359.38;5023763;28;20412;-81
2023/11/12 05:17:28;;;;;;;2.65;2.40;;;;;;;1.13;100.00;96359.38;5023000;28;20468;-80
2023/11/12 05:19:55;;;;;;;2.50;2.30;;;;;;;1.13;100.00;96355.97;5020733;28;20557;-79
2023/11/12 05:22:22;;;;;;;2.80;2.60;;;;;;;1.11;100.00;96356.19;5020541;28;21148;-79
2023/11/12 05:24:51;;;;;;;2.60;2.40;;;;;;;1.10;100.00;96365.03;5019653;28;20426;-79
2023/11/12 05:27:17;;;;;;;3.30;2.50;;;;;;;1.09;100.00;96367.84;5018900;28;20889;-80
2023/11/12 05:29:43;;;;;;;2.90;2.63;;;;;;;1.08;100.00;96368.84;5018484;28;20396;-79
2023/11/12 05:32:10;;;;;;;2.78;2.33;;;;;;;1.06;100.00;96371.66;5017964;28;20864;-79
2023/11/12 05:34:37;;;;;;;2.70;2.40;;;;;;;1.05;100.00;96371.91;4999503;28;20450;-79
2023/11/12 05:37:03;;;;;;;3.17;2.38;;;;;;;1.05;100.00;96384.94;4998552;28;20407;-79
2023/11/12 05:39:30;;;;;;;2.93;2.40;;;;;;;1.05;100.00;96388.31;5011601;28;20436;-79
2023/11/12 05:41:56;;;;;;;2.60;2.40;;;;;;;1.04;100.00;96386.75;5020787;28;20472;-78
2023/11/12 05:44:22;;;;;;;2.85;2.45;;;;;;;1.03;100.00;96386.94;5011407;28;20449;-78
2023/11/12 05:46:48;;;;;;;2.90;2.42;;;;;;;1.02;100.00;96391.38;5019353;28;20427;-79
2023/11/12 05:49:14;;;;;;;2.83;2.63;;;;;;;1.02;100.00;96387.97;5019764;28;20460;-79
2023/11/12 05:51:42;;;;;;;2.80;2.60;;;;;;;1.01;100.00;96388.97;5017662;28;20501;-79
2023/11/12 05:54:08;;;;;;;2.67;2.47;;;;;;;1.00;100.00;96389.97;5017522;28;20443;-80
2023/11/12 05:56:34;;;;;;;6.30;3.70;;;;;;;1.00;100.00;96395.19;5023868;28;20380;-81
2023/11/12 05:59:00;;;;;;;4.70;2.90;;;;;;;1.01;100.00;96397.59;5029869;28;20412;-80
2023/11/12 06:01:26;;;;;;;3.28;2.97;;;;;;;1.02;100.00;96393.97;5028204;28;20397;-79
2023/11/12 06:03:52;;;;;;;4.45;3.50;;;;;;;1.05;100.00;96392.75;5023874;28;20436;-80
2023/11/12 06:06:19;;;;;;;5.32;4.00;;;;;;;1.08;100.00;96398.31;5020060;28;20416;-81
2023/11/12 06:08:46;;;;;;;5.70;3.90;;;;;;;1.14;100.00;96400.06;5015348;28;20402;-80
2023/11/12 06:11:14;;;;;;;5.25;3.85;;;;;;;1.20;100.00;96408.84;5000062;28;20413;-79
2023/11/12 06:13:40;;;;;;;5.57;4.20;;;;;;;1.25;100.00;96403.78;4999361;28;20508;-79
2023/11/12 06:16:07;;;;;;;8.30;4.38;;;;;;;1.29;100.00;96404.13;4999363;28;20402;-78
2023/11/12 06:18:34;;;;;;;7.40;4.87;;;;;;;1.32;100.00;96401.09;4999864;28;20409;-79
2023/11/12 06:21:00;;;;;;;10.20;5.32;;;;;;;1.38;100.00;96401.03;5000121;28;20395;-80
2023/11/12 06:23:26;;;;;;;8.32;5.50;;;;;;;1.40;100.00;96414.66;4999740;28;20399;-79
2023/11/12 06:25:54;;;;;;;8.55;5.50;;;;;;;1.47;100.00;96409.34;5001063;28;20793;-78
2023/11/12 06:28:22;;;;;;;8.32;5.20;;;;;;;1.47;100.00;96412.75;5000688;28;20395;-81
2023/11/12 06:30:48;;;;;;;7.55;5.00;;;;;;;1.49;100.00;96420.38;5000287;28;20409;-80
2023/11/12 06:33:15;;;;;;;6.60;4.68;;;;;;;1.47;100.00;96423.19;5000661;28;20501;-80
2023/11/12 06:35:42;;;;;;;8.05;4.93;;;;;;;1.45;100.00;96427.03;5007526;28;20409;-80
2023/11/12 06:38:08;;;;;;;7.95;5.30;;;;;;;1.43;100.00;96432.44;5008090;28;20398;-78
2023/11/12 06:40:34;;;;;;;8.88;5.43;;;;;;;1.44;100.00;96428.81;4998967;28;20403;-77
2023/11/12 06:43:01;;;;;;;7.75;5.53;;;;;;;1.50;100.00;96437.63;5001493;28;20401;-79
2023/11/12 06:45:28;;;;;;;7.35;5.30;;;;;;;1.53;100.00;96437.97;5000868;28;20456;-78
2023/11/12 06:47:54;;;;;;;6.97;5.25;;;;;;;1.57;100.00;96450.59;5000413;28;20454;-80
2023/11/12 06:50:20;;;;;;;7.18;4.80;;;;;;;1.58;100.00;96449.56;5009211;28;20877;-79
2023/11/12 06:52:46;;;;;;;6.50;4.80;;;;;;;1.58;100.00;96449.56;5009023;28;20406;-78
2023/11/12 06:55:12;;;;;;;5.63;4.53;;;;;;;1.58;100.00;96452.94;5020339;28;20409;-78
2023/11/12 06:57:38;;;;;;;7.03;4.90;;;;;;;1.59;100.00;96457.16;5020325;28;20404;-80
2023/11/12 07:00:08;;;;;;;9.45;5.40;;;;;;;1.57;100.00;96453.19;5020472;28;20424;-78
2023/11/12 07:02:35;;;;;;;11.20;5.05;;;;;;;1.61;100.00;96452.53;5026240;28;20906;-81
2023/11/12 07:05:04;;;;;;;6.25;4.93;;;;;;;1.66;100.00;96457.88;5019182;28;20783;-79
2023/11/12 07:07:31;;;;;;;9.23;5.30;;;;;;;1.71;100.00;96462.47;5018866;28;20532;-79
2023/11/12 07:09:57;;;;;;;7.00;4.88;;;;;;;1.73;100.00;96461.22;5020194;28;20396;-80
2023/11/12 07:12:23;;;;;;;7.18;5.00;;;;;;;1.76;100.00;96467.81;5018451;28;20764;-79
2023/11/12 07:14:50;;;;;;;6.32;4.80;;;;;;;1.77;100.00;96469.41;5019072;28;20397;-80
2023/11/12 07:17:17;;;;;;;8.95;4.82;;;;;;;1.82;100.00;96472.16;5018723;28;20396;-80
2023/11/12 07:19:44;;;;;;;7.10;5.07;;;;;;;1.89;100.00;96475.50;5018495;28;20412;-80
2023/11/12 07:22:10;;;;;;;6.25;4.78;;;;;;;1.90;100.00;96464.03;5012365;28;20398;-80
2023/11/12 07:24:37;;;;;;;6.75;4.70;;;;;;;1.94;100.00;96463.41;5003828;28;20429;-79
2023/11/12 07:27:03;;;;;;;5.57;4.30;;;;;;;2.01;100.00;96467.75;4998385;28;20399;-78
2023/11/12 07:29:30;;;;;;;6.22;4.03;;;;;;;2.04;100.00;96470.69;4998209;28;20403;-79
2023/11/12 07:31:56;;;;;;;4.25;3.85;;;;;;;2.07;100.00;96469.47;4997751;28;20842;-79
2023/11/12 07:34:24;;;;;;;4.20;3.80;;;;;;;2.11;100.00;96470.59;5016128;28;20404;-80
2023/11/12 07:36:50;;;;;;;3.80;3.40;;;;;;;2.14;100.00;96470.19;5015742;28;20397;-79
2023/11/12 07:39:16;;;;;;;4.55;3.20;;;;;;;2.17;100.00;96475.78;5000270;28;20406;-79
2023/11/12 07:41:42;;;;;;;3.25;2.90;;;;;;;2.23;100.00;96484.53;4997887;28;20410;-79
2023/11/12 07:44:08;;;;;;;3.60;3.22;;;;;;;2.27;100.00;96483.06;5005676;28;20401;-79
2023/11/12 07:46:39;;;;;;;3.60;3.30;;;;;;;2.32;100.00;96489.22;5019122;28;20421;-80
2023/11/12 07:49:05;;;;;;;3.30;3.00;;;;;;;2.38;100.00;96490.16;5018198;28;20898;-79
2023/11/12 07:51:34;;;;;;;3.47;3.17;;;;;;;2.43;100.00;96490.28;5017404;28;20404;-79
2023/11/12 07:54:01;;;;;;;4.00;3.30;;;;;;;2.48;100.00;96493.03;5018065;28;20446;-79
2023/11/12 07:56:27;;;;;;;3.58;3.15;;;;;;;2.52;100.00;96496.00;5017032;28;20404;-79
2023/11/12 07:58:53;;;;;;;3.40;3.10;;;;;;;2.56;100.00;96494.53;5014957;28;20408;-77
2023/11/12 08:01:19;;;;;;;3.63;3.28;;;;;;;2.60;100.00;96503.53;5014227;28;20397;-77
2023/11/12 08:03:46;;;;;;;3.57;3.27;;;;;;;2.62;100.00;96499.69;5013992;28;20474;-78
2023/11/12 08:06:13;;;;;;;3.38;3.08;;;;;;;2.67;100.00;96501.63;5017437;28;20430;-78
2023/11/12 08:08:41;;;;;;;3.30;3.00;;;;;;;2.73;100.00;96501.53;5017259;28;20454;-78
2023/11/12 08:11:07;;;;;;;6.00;4.53;;;;;;;2.72;100.00;96507.75;5016360;28;20405;-78
2023/11/12 08:13:33;;;;;;;5.10;4.03;;;;;;;2.81;100.00;96503.03;5016656;28;20397;-78
2023/11/12 08:16:00;;;;;;;5.38;3.80;;;;;;;2.87;100.00;96493.47;5017710;28;20936;-78
2023/11/12 08:18:26;;;;;;;5.30;3.95;;;;;;;2.92;100.00;96498.84;5016922;28;20416;-78
2023/11/12 08:20:54;;;;;;;5.25;4.10;;;;;;;2.97;100.00;96489.31;5021544;28;20405;-77
2023/11/12 08:23:21;;;;;;;8.63;4.80;;;;;;;3.01;100.00;96500.91;5019294;28;20418;-78
2023/11/12 08:25:48;;;;;;;5.00;4.30;;;;;;;3.08;100.00;96495.59;5021662;28;20436;-78
2023/11/12 08:28:16;;;;;;;4.57;3.70;;;;;;;3.19;100.00;96492.19;5019714;28;20408;-82
2023/11/12 08:30:42;;;;;;;7.00;4.20;;;;;;;3.28;100.00;96490.81;5018097;28;20442;-80
2023/11/12 08:33:08;;;;;;;4.05;3.60;;;;;;;3.45;100.00;96504.84;5018272;28;20773;-79
2023/11/12 08:35:34;;;;;;;5.13;3.60;;;;;;;3.64;100.00;96495.03;5008893;28;20457;-78
2023/11/12 08:38:01;;;;;;;3.63;3.30;;;;;;;3.91;100.00;96503.19;5021421;28;20401;-77
2023/11/12 08:40:27;;;;;;;3.10;2.80;;;;;;;4.21;100.00;96493.31;5000876;28;20415;-78
2023/11/12 08:42:54;;;;;;;4.72;3.30;;;;;;;4.46;100.00;96493.00;5013822;28;20483;-79
2023/11/12 08:45:20;;;;;;;3.78;3.28;;;;;;;4.67;100.00;96489.72;5017332;28;20467;-77
2023/11/12 08:47:46;;;;;;;3.30;3.00;;;;;;;4.88;100.00;96500.59;5009847;28;20901;-79
2023/11/12 08:50:13;;;;;;;4.15;3.42;;;;;;;5.01;100.00;96497.66;5020388;28;20409;-79
2023/11/12 08:52:39;;;;;;;3.67;2.97;;;;;;;5.15;100.00;96493.69;5008487;28;20474;-79
2023/11/12 08:55:09;;;;;;;5.00;3.63;;;;;;;5.31;100.00;96502.59;5002881;28;20779;-78
2023/11/12 08:57:35;;;;;;;4.78;3.60;;;;;;;5.53;100.00;96498.22;4999286;28;20424;-79
2023/11/12 09:00:06;;;;;;;3.70;3.40;;;;;;;5.78;100.00;96490.69;5012238;28;20934;-79
2023/11/12 09:02:32;;;;;;;4.35;3.22;;;;;;;6.03;100.00;96500.75;5019793;28;20417;-79
2023/11/12 09:04:59;;;;;;;3.30;2.95;;;;;;;6.37;100.00;96498.81;5019034;28;20433;-78
2023/11/12 09:07:25;;;;;;;4.93;3.35;;;;;;;6.37;100.00;96498.81;5018159;28;20401;-79
2023/11/12 09:09:51;;;;;;;4.72;2.78;;;;;;;6.55;100.00;96500.31;5019049;28;20396;-79
2023/11/12 09:12:17;;;;;;;6.38;3.40;;;;;;;6.56;100.00;96502.69;5019655;28;20421;-79
2023/11/12 09:14:44;;;;;;;4.18;3.00;;;;;;;6.47;100.00;96508.63;5018432;28;20408;-78
2023/11/12 09:17:12;;;;;;;3.50;2.78;;;;;;;6.45;100.00;96510.72;5020226;28;20401;-79
2023/11/12 09:19:38;;;;;;;5.22;3.35;;;;;;;6.36;100.00;96513.00;5021680;28;20500;-78
2023/11/12 09:22:04;;;;;;;3.97;3.30;;;;;;;6.26;100.00;96515.50;5021378;28;20927;-78
2023/11/12 09:24:30;;;;;;;3.90;3.33;;;;;;;6.15;100.00;96522.47;5025417;28;20436;-80
2023/11/12 09:26:57;;;;;;;2.97;2.70;;;;;;;6.04;100.00;96523.38;5019667;28;20573;-79
2023/11/12 09:29:24;;;;;;;2.60;2.38;;;;;;;5.99;100.00;96525.94;5019321;28;20409;-79
2023/11/12 09:31:50;;;;;;;2.75;2.45;;;;;;;6.06;100.00;96525.75;5019951;28;20400;-79
2023/11/12 09:34:17;;;;;;;3.97;3.03;;;;;;;6.19;100.00;96528.81;5001040;28;20413;-79
2023/11/12 09:36:45;;;;;;;3.05;2.53;;;;;;;6.39;100.00;96530.13;4998587;28;20406;-79
2023/11/12 09:39:13;;;;;;;3.20;2.50;;;;;;;6.62;100.00;96524.56;4999727;28;20787;-79
2023/11/12 09:41:46;;;;;;;3.88;3.15;;;;;;;6.67;100.00;96531.72;4998515;28;20763;-78
2023/11/12 09:44:14;;;;;;;4.75;2.92;;;;;;;6.69;100.00;96534.91;5006450;28;20400;-79
2023/11/12 09:46:40;;;;;;;4.50;3.20;;;;;;;6.58;100.00;96526.91;5018840;28;20423;-79
2023/11/12 09:49:08;;;;;;;4.35;3.17;;;;;;;6.50;100.00;96523.91;5012774;28;20444;-79
2023/11/12 09:51:40;;;;;;;3.60;2.90;;;;;;;6.42;100.00;96524.34;5000440;28;20398;-79
2023/11/12 09:54:08;;;;;;;4.30;3.45;;;;;;;5.94;100.00;96530.34;4999473;28;20407;-78
2023/11/12 09:56:35;;;;;;;3.88;3.38;;;;;;;5.73;100.00;96521.31;4999539;28;20405;-79
2023/11/12 09:59:01;;;;;;;7.43;3.92;;;;;;;5.76;100.00;96526.91;5000201;28;20729;-78
2023/11/12 10:01:28;;;;;;;5.60;3.53;;;;;;;5.76;100.00;96526.09;4998613;28;20398;-78
2023/11/12 10:03:54;;;;;;;8.57;3.67;;;;;;;5.82;100.00;96544.31;4997956;28;20431;-78
2023/11/12 10:06:22;;;;;;;6.63;3.45;;;;;;;5.89;100.00;96543.38;4999649;28;20842;-78
2023/11/12 10:08:51;;;;;;;6.20;3.60;;;;;;;6.03;100.00;96547.25;5005871;28;20412;-79
2023/11/12 10:11:18;;;;;;;5.10;3.35;;;;;;;6.24;100.00;96551.72;5021348;28;20393;-78
2023/11/12 10:13:45;;;;;;;4.68;3.17;;;;;;;6.27;100.00;96553.88;5020176;28;20392;-79
2023/11/12 10:16:25;;;;;;;3.47;2.88;;;;;;;6.31;100.00;96547.09;5021335;28;20401;-79
2023/11/12 10:18:51;;;;;;;7.07;2.90;;;;;;;6.16;100.00;96546.91;5020304;28;20511;-79
2023/11/12 10:21:20;;;;;;;5.25;2.90;;;;;;;6.07;100.00;96546.53;5018878;28;20389;-78
2023/11/12 10:24:02;;;;;;;5.53;3.30;;;;;;;5.94;100.00;96546.84;5019723;28;20428;-78
2023/11/12 10:26:34;;;;;;;4.53;3.25;;;;;;;5.96;100.00;96541.38;5019318;28;20425;-79
2023/11/12 10:29:00;;;;;;;9.07;3.72;;;;;;;5.76;100.00;96549.75;5018702;28;20396;-79
2023/11/12 10:31:40;;;;;;;5.07;3.03;;;;;;;5.79;100.00;96542.16;5017845;28;20757;-78
2023/11/12 10:34:07;;;;;;;4.60;2.97;;;;;;;5.72;100.00;96535.47;5003370;28;20398;-79
2023/11/12 10:36:33;;;;;;;5.15;3.08;;;;;;;5.69;100.00;96547.28;4999612;28;20399;-79
2023/11/12 10:39:04;;;;;;;4.03;3.13;;;;;;;5.69;100.00;96541.22;5000987;28;20417;-78
2023/11/12 10:41:39;;;;;;;4.50;3.03;;;;;;;5.65;100.00;96540.91;5000216;28;20403;-79
2023/11/12 10:44:10;;;;;;;3.72;2.65;;;;;;;5.71;100.00;96545.19;5010490;28;20507;-78
2023/11/12 10:46:39;;;;;;;6.57;3.60;;;;;;;5.55;100.00;96542.59;5021716;28;20421;-78
2023/11/12 10:49:08;;;;;;;5.38;2.78;;;;;;;5.67;100.00;96541.47;5021595;28;20400;-79
2023/11/12 10:51:38;;;;;;;3.85;2.63;;;;;;;5.75;100.00;96537.63;5021889;28;20396;-78
2023/11/12 10:54:06;;;;;;;5.13;3.10;;;;;;;5.83;100.00;96529.34;5021655;28;20412;-79
2023/11/12 10:56:34;;;;;;;4.07;2.75;;;;;;;5.94;100.00;96530.34;5011873;28;20492;-79
2023/11/12 10:59:03;;;;;;;3.80;2.60;;;;;;;6.02;100.00;96537.75;5021943;28;20425;-79
2023/11/12 11:01:29;;;;;;;4.82;2.50;;;;;;;6.06;100.00;96534.44;5023413;28;20393;-79
2023/11/12 11:03:55;;;;;;;3.70;2.60;;;;;;;6.14;100.00;96535.84;5022539;28;20401;-78
2023/11/12 11:06:22;;;;;;;3.50;2.30;;;;;;;6.18;100.00;96532.47;5023489;28;20777;-79
2023/11/12 11:08:48;;;;;;;6.00;2.87;;;;;;;6.07;100.00;96529.97;5003413;28;20402;-78
2023/11/12 11:11:15;;;;;;;4.57;2.58;;;;;;;5.98;100.00;96531.41;5002618;28;20917;-78
2023/11/12 11:13:43;;;;;;;5.15;3.00;;;;;;;5.81;100.00;96526.97;5002865;28;20792;-78
2023/11/12 11:16:09;;;;;;;4.18;2.80;;;;;;;5.87;100.00;96529.66;5003150;28;20398;-79
2023/11/12 11:18:51;;;;;;;5.68;3.17;;;;;;;5.80;100.00;96522.75;5002521;28;20402;-78
2023/11/12 11:21:18;;;;;;;5.45;2.92;;;;;;;5.75;100.00;96521.88;5001886;28;20399;-78
2023/11/12 11:23:49;;;;;;;6.65;3.22;;;;;;;5.81;100.00;96521.72;5003028;28;20465;-79
2023/11/12 11:26:26;;;;;;;5.03;3.20;;;;;;;5.86;100.00;96526.25;5005333;28;20846;-78
2023/11/12 11:29:16;;;;;;;4.43;3.42;;;;;;;5.92;100.00;96521.88;4986846;28;20414;-79
2023/11/12 11:32:17;;;;;;;4.77;3.40;;;;;;;5.81;100.00;96519.09;5002609;28;20430;-78
2023/11/12 11:34:44;;;;;;;5.68;3.30;;;;;;;5.91;100.00;96517.66;5003503;28;20406;-78